sensor_id;sensor_type;location;lat;lon;timestamp;P1;durP1;ratioP1;P2;durP2;ratioP2
69627;SDS011;56850;51.984;5.088;2023-03-16T00:01:06;7.75;;;4.90;;
69627;SDS011;56850;51.984;5.088;2023-03-16T00:03:33;6.97;;;4.20;;
69627;SDS011;56850;51.984;5.088;2023-03-16T00:06:02;6.28;;;5.03;;
69627;SDS011;56850;51.984;5.088;2023-03-16T00:08:29;6.65;;;4.70;;
69627;SDS011;56850;51.984;5.088;2023-03-16T00:10:56;6.93;;;4.68;;
69627;SDS011;56850;51.984;5.088;2023-03-16T00:13:23;5.97;;;5.00;;
69627;SDS011;56850;51.984;5.088;2023-03-16T00:15:51;8.00;;;5.20;;
69627;SDS011;56850;51.984;5.088;2023-03-16T00:18:20;6.38;;;5.07;;
69627;SDS011;56850;51.984;5.088;2023-03-16T00:20:49;8.50;;;5.13;;
69627;SDS011;56850;51.984;5.088;2023-03-16T00:23:20;7.60;;;4.93;;
69627;SDS011;56850;51.984;5.088;2023-03-16T00:25:54;7.15;;;4.65;;
69627;SDS011;56850;51.984;5.088;2023-03-16T00:28:25;6.50;;;4.63;;
69627;SDS011;56850;51.984;5.088;2023-03-16T00:30:53;7.32;;;4.85;;
69627;SDS011;56850;51.984;5.088;2023-03-16T00:33:24;8.32;;;5.10;;
69627;SDS011;56850;51.984;5.088;2023-03-16T00:35:52;5.95;;;5.25;;
69627;SDS011;56850;51.984;5.088;2023-03-16T00:38:31;7.97;;;5.10;;
69627;SDS011;56850;51.984;5.088;2023-03-16T00:41:00;7.30;;;5.10;;
69627;SDS011;56850;51.984;5.088;2023-03-16T00:43:32;7.15;;;5.55;;
69627;SDS011;56850;51.984;5.088;2023-03-16T00:46:11;6.43;;;4.25;;
69627;SDS011;56850;51.984;5.088;2023-03-16T00:48:42;7.97;;;4.80;;
69627;SDS011;56850;51.984;5.088;2023-03-16T00:51:14;8.50;;;5.03;;
69627;SDS011;56850;51.984;5.088;2023-03-16T00:53:43;7.87;;;5.00;;
69627;SDS011;56850;51.984;5.088;2023-03-16T00:56:12;6.25;;;3.45;;
69627;SDS011;56850;51.984;5.088;2023-03-16T00:58:39;7.13;;;4.50;;
69627;SDS011;56850;51.984;5.088;2023-03-16T01:01:11;7.07;;;4.70;;
69627;SDS011;56850;51.984;5.088;2023-03-16T01:03:44;7.75;;;4.53;;
69627;SDS011;56850;51.984;5.088;2023-03-16T01:06:12;8.83;;;5.00;;
69627;SDS011;56850;51.984;5.088;2023-03-16T01:08:42;6.20;;;4.40;;
69627;SDS011;56850;51.984;5.088;2023-03-16T01:11:14;8.23;;;5.75;;
69627;SDS011;56850;51.984;5.088;2023-03-16T01:13:43;6.38;;;5.43;;
69627;SDS011;56850;51.984;5.088;2023-03-16T01:16:12;6.88;;;5.55;;
69627;SDS011;56850;51.984;5.088;2023-03-16T01:18:40;9.83;;;5.03;;
69627;SDS011;56850;51.984;5.088;2023-03-16T01:21:07;8.95;;;5.78;;
69627;SDS011;56850;51.984;5.088;2023-03-16T01:23:35;10.05;;;5.90;;
69627;SDS011;56850;51.984;5.088;2023-03-16T01:26:02;6.95;;;5.35;;
69627;SDS011;56850;51.984;5.088;2023-03-16T01:28:30;7.63;;;5.32;;
69627;SDS011;56850;51.984;5.088;2023-03-16T01:31:02;8.83;;;5.60;;
69627;SDS011;56850;51.984;5.088;2023-03-16T01:33:33;6.38;;;4.80;;
69627;SDS011;56850;51.984;5.088;2023-03-16T01:36:03;7.68;;;4.85;;
69627;SDS011;56850;51.984;5.088;2023-03-16T01:38:42;9.88;;;5.13;;
69627;SDS011;56850;51.984;5.088;2023-03-16T01:41:11;8.40;;;4.97;;
69627;SDS011;56850;51.984;5.088;2023-03-16T01:43:39;7.03;;;5.57;;
69627;SDS011;56850;51.984;5.088;2023-03-16T01:46:15;5.40;;;4.70;;
69627;SDS011;56850;51.984;5.088;2023-03-16T01:51:39;8.82;;;4.88;;
69627;SDS011;56850;51.984;5.088;2023-03-16T01:54:23;6.75;;;5.38;;
69627;SDS011;56850;51.984;5.088;2023-03-16T01:56:58;8.03;;;5.77;;
69627;SDS011;56850;51.984;5.088;2023-03-16T01:59:51;7.15;;;5.03;;
69627;SDS011;56850;51.984;5.088;2023-03-16T02:02:39;7.82;;;5.53;;
69627;SDS011;56850;51.984;5.088;2023-03-16T02:05:22;7.40;;;5.10;;
69627;SDS011;56850;51.984;5.088;2023-03-16T02:07:54;7.40;;;5.10;;
69627;SDS011;56850;51.984;5.088;2023-03-16T02:10:25;7.90;;;5.40;;
69627;SDS011;56850;51.984;5.088;2023-03-16T02:12:54;6.93;;;5.07;;
69627;SDS011;56850;51.984;5.088;2023-03-16T02:15:23;7.22;;;5.55;;
69627;SDS011;56850;51.984;5.088;2023-03-16T02:17:50;8.45;;;5.30;;
69627;SDS011;56850;51.984;5.088;2023-03-16T02:23:05;8.10;;;6.10;;
69627;SDS011;56850;51.984;5.088;2023-03-16T02:25:37;7.43;;;4.43;;
69627;SDS011;56850;51.984;5.088;2023-03-16T02:28:33;7.07;;;5.18;;
69627;SDS011;56850;51.984;5.088;2023-03-16T02:31:16;10.68;;;5.80;;
69627;SDS011;56850;51.984;5.088;2023-03-16T02:33:44;6.43;;;4.82;;
69627;SDS011;56850;51.984;5.088;2023-03-16T02:36:14;8.03;;;4.90;;
69627;SDS011;56850;51.984;5.088;2023-03-16T02:38:44;5.97;;;5.07;;
69627;SDS011;56850;51.984;5.088;2023-03-16T02:41:14;10.23;;;5.78;;
69627;SDS011;56850;51.984;5.088;2023-03-16T02:43:54;9.63;;;5.80;;
69627;SDS011;56850;51.984;5.088;2023-03-16T02:46:30;6.35;;;4.70;;
69627;SDS011;56850;51.984;5.088;2023-03-16T02:49:44;8.47;;;5.40;;
69627;SDS011;56850;51.984;5.088;2023-03-16T02:51:55;7.43;;;4.78;;
69627;SDS011;56850;51.984;5.088;2023-03-16T02:54:22;6.90;;;5.20;;
69627;SDS011;56850;51.984;5.088;2023-03-16T02:56:50;8.48;;;4.70;;
69627;SDS011;56850;51.984;5.088;2023-03-16T02:59:18;8.45;;;4.60;;
69627;SDS011;56850;51.984;5.088;2023-03-16T03:01:45;10.37;;;5.33;;
69627;SDS011;56850;51.984;5.088;2023-03-16T03:04:12;7.15;;;5.18;;
69627;SDS011;56850;51.984;5.088;2023-03-16T03:06:39;6.63;;;4.70;;
69627;SDS011;56850;51.984;5.088;2023-03-16T03:09:07;6.55;;;4.18;;
69627;SDS011;56850;51.984;5.088;2023-03-16T03:11:37;8.35;;;4.65;;
69627;SDS011;56850;51.984;5.088;2023-03-16T03:14:04;7.57;;;5.13;;
69627;SDS011;56850;51.984;5.088;2023-03-16T03:16:31;9.60;;;5.47;;
69627;SDS011;56850;51.984;5.088;2023-03-16T03:18:59;8.23;;;5.15;;
69627;SDS011;56850;51.984;5.088;2023-03-16T03:21:28;10.30;;;4.72;;
69627;SDS011;56850;51.984;5.088;2023-03-16T03:23:55;9.50;;;4.88;;
69627;SDS011;56850;51.984;5.088;2023-03-16T03:26:22;6.93;;;5.13;;
69627;SDS011;56850;51.984;5.088;2023-03-16T03:28:50;9.35;;;4.80;;
69627;SDS011;56850;51.984;5.088;2023-03-16T03:31:19;7.47;;;4.63;;
69627;SDS011;56850;51.984;5.088;2023-03-16T03:33:47;5.78;;;3.95;;
69627;SDS011;56850;51.984;5.088;2023-03-16T03:36:14;7.20;;;5.20;;
69627;SDS011;56850;51.984;5.088;2023-03-16T03:38:43;10.47;;;5.53;;
69627;SDS011;56850;51.984;5.088;2023-03-16T03:41:11;8.32;;;4.97;;
69627;SDS011;56850;51.984;5.088;2023-03-16T03:43:38;7.32;;;4.68;;
69627;SDS011;56850;51.984;5.088;2023-03-16T03:46:10;8.20;;;5.75;;
69627;SDS011;56850;51.984;5.088;2023-03-16T03:48:37;9.48;;;5.10;;
69627;SDS011;56850;51.984;5.088;2023-03-16T03:51:04;6.20;;;5.10;;
69627;SDS011;56850;51.984;5.088;2023-03-16T03:53:41;8.52;;;5.15;;
69627;SDS011;56850;51.984;5.088;2023-03-16T03:56:24;10.30;;;5.22;;
69627;SDS011;56850;51.984;5.088;2023-03-16T03:58:51;9.68;;;5.65;;
69627;SDS011;56850;51.984;5.088;2023-03-16T04:01:30;6.85;;;5.18;;
69627;SDS011;56850;51.984;5.088;2023-03-16T04:03:58;7.13;;;4.40;;
69627;SDS011;56850;51.984;5.088;2023-03-16T04:06:25;8.35;;;4.93;;
69627;SDS011;56850;51.984;5.088;2023-03-16T04:08:53;7.00;;;4.38;;
69627;SDS011;56850;51.984;5.088;2023-03-16T04:11:24;6.05;;;4.38;;
69627;SDS011;56850;51.984;5.088;2023-03-16T04:13:51;9.90;;;3.80;;
69627;SDS011;56850;51.984;5.088;2023-03-16T04:16:19;9.33;;;3.43;;
69627;SDS011;56850;51.984;5.088;2023-03-16T04:18:50;6.38;;;2.95;;
69627;SDS011;56850;51.984;5.088;2023-03-16T04:21:21;7.78;;;3.72;;
69627;SDS011;56850;51.984;5.088;2023-03-16T04:23:49;5.25;;;4.07;;
69627;SDS011;56850;51.984;5.088;2023-03-16T04:26:24;7.53;;;4.68;;
69627;SDS011;56850;51.984;5.088;2023-03-16T04:28:52;8.60;;;5.00;;
69627;SDS011;56850;51.984;5.088;2023-03-16T04:31:19;6.28;;;4.60;;
69627;SDS011;56850;51.984;5.088;2023-03-16T04:33:46;7.35;;;4.68;;
69627;SDS011;56850;51.984;5.088;2023-03-16T04:36:13;5.78;;;4.70;;
69627;SDS011;56850;51.984;5.088;2023-03-16T04:38:41;7.57;;;5.10;;
69627;SDS011;56850;51.984;5.088;2023-03-16T04:41:09;7.80;;;5.00;;
69627;SDS011;56850;51.984;5.088;2023-03-16T04:43:43;5.22;;;4.40;;
69627;SDS011;56850;51.984;5.088;2023-03-16T04:46:16;2.80;;;2.40;;
69627;SDS011;56850;51.984;5.088;2023-03-16T04:48:44;8.00;;;4.40;;
69627;SDS011;56850;51.984;5.088;2023-03-16T04:51:11;6.35;;;4.75;;
69627;SDS011;56850;51.984;5.088;2023-03-16T04:53:43;8.13;;;4.30;;
69627;SDS011;56850;51.984;5.088;2023-03-16T04:56:18;6.63;;;4.35;;
69627;SDS011;56850;51.984;5.088;2023-03-16T04:58:51;6.82;;;4.20;;
69627;SDS011;56850;51.984;5.088;2023-03-16T05:01:20;9.55;;;4.97;;
69627;SDS011;56850;51.984;5.088;2023-03-16T05:03:51;4.00;;;2.53;;
69627;SDS011;56850;51.984;5.088;2023-03-16T05:06:18;7.97;;;4.97;;
69627;SDS011;56850;51.984;5.088;2023-03-16T05:08:45;8.00;;;4.93;;
69627;SDS011;56850;51.984;5.088;2023-03-16T05:11:13;4.60;;;3.25;;
69627;SDS011;56850;51.984;5.088;2023-03-16T05:13:49;7.85;;;5.13;;
69627;SDS011;56850;51.984;5.088;2023-03-16T05:16:16;4.95;;;3.88;;
69627;SDS011;56850;51.984;5.088;2023-03-16T05:18:44;10.67;;;4.83;;
69627;SDS011;56850;51.984;5.088;2023-03-16T05:21:11;6.65;;;4.45;;
69627;SDS011;56850;51.984;5.088;2023-03-16T05:23:52;7.45;;;4.47;;
69627;SDS011;56850;51.984;5.088;2023-03-16T05:26:19;5.93;;;4.60;;
69627;SDS011;56850;51.984;5.088;2023-03-16T05:28:46;6.15;;;4.40;;
69627;SDS011;56850;51.984;5.088;2023-03-16T05:31:15;9.73;;;4.50;;
69627;SDS011;56850;51.984;5.088;2023-03-16T05:33:47;7.22;;;4.10;;
69627;SDS011;56850;51.984;5.088;2023-03-16T05:36:17;8.13;;;5.03;;
69627;SDS011;56850;51.984;5.088;2023-03-16T05:38:48;6.05;;;3.97;;
69627;SDS011;56850;51.984;5.088;2023-03-16T05:41:24;9.32;;;4.22;;
69627;SDS011;56850;51.984;5.088;2023-03-16T05:44:02;7.87;;;4.43;;
69627;SDS011;56850;51.984;5.088;2023-03-16T05:46:43;7.28;;;4.07;;
69627;SDS011;56850;51.984;5.088;2023-03-16T05:49:11;6.85;;;4.07;;
69627;SDS011;56850;51.984;5.088;2023-03-16T05:51:38;4.28;;;2.38;;
69627;SDS011;56850;51.984;5.088;2023-03-16T05:54:05;6.18;;;2.97;;
69627;SDS011;56850;51.984;5.088;2023-03-16T05:56:41;5.90;;;3.87;;
69627;SDS011;56850;51.984;5.088;2023-03-16T05:59:07;5.65;;;4.32;;
69627;SDS011;56850;51.984;5.088;2023-03-16T06:01:35;8.20;;;3.80;;
69627;SDS011;56850;51.984;5.088;2023-03-16T06:04:03;8.32;;;4.35;;
69627;SDS011;56850;51.984;5.088;2023-03-16T06:06:33;7.72;;;4.10;;
69627;SDS011;56850;51.984;5.088;2023-03-16T06:09:07;4.77;;;4.27;;
69627;SDS011;56850;51.984;5.088;2023-03-16T06:11:34;6.57;;;3.42;;
69627;SDS011;56850;51.984;5.088;2023-03-16T06:14:01;5.82;;;3.75;;
69627;SDS011;56850;51.984;5.088;2023-03-16T06:16:28;8.60;;;3.75;;
69627;SDS011;56850;51.984;5.088;2023-03-16T06:18:56;6.05;;;3.67;;
69627;SDS011;56850;51.984;5.088;2023-03-16T06:21:26;6.30;;;4.20;;
69627;SDS011;56850;51.984;5.088;2023-03-16T06:23:56;9.05;;;3.72;;
69627;SDS011;56850;51.984;5.088;2023-03-16T06:26:23;9.93;;;3.10;;
69627;SDS011;56850;51.984;5.088;2023-03-16T06:28:50;7.18;;;4.15;;
69627;SDS011;56850;51.984;5.088;2023-03-16T06:31:17;6.35;;;4.18;;
69627;SDS011;56850;51.984;5.088;2023-03-16T06:33:45;6.90;;;4.07;;
69627;SDS011;56850;51.984;5.088;2023-03-16T06:36:12;8.00;;;4.53;;
69627;SDS011;56850;51.984;5.088;2023-03-16T06:38:45;6.03;;;3.70;;
69627;SDS011;56850;51.984;5.088;2023-03-16T06:41:32;5.40;;;3.92;;
69627;SDS011;56850;51.984;5.088;2023-03-16T06:44:01;4.60;;;3.22;;
69627;SDS011;56850;51.984;5.088;2023-03-16T06:46:28;5.57;;;3.47;;
69627;SDS011;56850;51.984;5.088;2023-03-16T06:48:57;5.88;;;3.58;;
69627;SDS011;56850;51.984;5.088;2023-03-16T06:51:26;9.32;;;3.80;;
69627;SDS011;56850;51.984;5.088;2023-03-16T06:53:53;7.05;;;3.55;;
69627;SDS011;56850;51.984;5.088;2023-03-16T06:56:20;6.35;;;3.30;;
69627;SDS011;56850;51.984;5.088;2023-03-16T06:58:48;6.77;;;3.33;;
69627;SDS011;56850;51.984;5.088;2023-03-16T07:01:15;5.63;;;3.90;;
69627;SDS011;56850;51.984;5.088;2023-03-16T07:03:42;5.90;;;2.47;;
69627;SDS011;56850;51.984;5.088;2023-03-16T07:06:30;8.25;;;3.08;;
69627;SDS011;56850;51.984;5.088;2023-03-16T07:08:57;4.72;;;3.25;;
69627;SDS011;56850;51.984;5.088;2023-03-16T07:11:26;6.23;;;3.60;;
69627;SDS011;56850;51.984;5.088;2023-03-16T07:13:55;7.25;;;3.50;;
69627;SDS011;56850;51.984;5.088;2023-03-16T07:16:25;5.43;;;3.30;;
69627;SDS011;56850;51.984;5.088;2023-03-16T07:18:55;9.63;;;3.55;;
69627;SDS011;56850;51.984;5.088;2023-03-16T07:21:23;7.55;;;3.70;;
69627;SDS011;56850;51.984;5.088;2023-03-16T07:23:50;4.87;;;2.70;;
69627;SDS011;56850;51.984;5.088;2023-03-16T07:26:22;4.97;;;2.83;;
69627;SDS011;56850;51.984;5.088;2023-03-16T07:28:53;6.10;;;2.80;;
69627;SDS011;56850;51.984;5.088;2023-03-16T07:31:23;6.75;;;2.67;;
69627;SDS011;56850;51.984;5.088;2023-03-16T07:33:51;7.03;;;3.05;;
69627;SDS011;56850;51.984;5.088;2023-03-16T07:36:27;5.73;;;3.30;;
69627;SDS011;56850;51.984;5.088;2023-03-16T07:38:57;6.57;;;2.53;;
69627;SDS011;56850;51.984;5.088;2023-03-16T07:41:24;5.35;;;3.03;;
69627;SDS011;56850;51.984;5.088;2023-03-16T07:43:51;4.35;;;2.67;;
69627;SDS011;56850;51.984;5.088;2023-03-16T07:46:22;6.40;;;3.28;;
69627;SDS011;56850;51.984;5.088;2023-03-16T07:48:49;9.73;;;3.97;;
69627;SDS011;56850;51.984;5.088;2023-03-16T07:51:17;7.50;;;3.38;;
69627;SDS011;56850;51.984;5.088;2023-03-16T07:53:47;3.55;;;2.90;;
69627;SDS011;56850;51.984;5.088;2023-03-16T07:56:18;6.20;;;2.63;;
69627;SDS011;56850;51.984;5.088;2023-03-16T07:58:49;6.35;;;2.78;;
69627;SDS011;56850;51.984;5.088;2023-03-16T08:01:16;5.67;;;3.20;;
69627;SDS011;56850;51.984;5.088;2023-03-16T08:03:43;4.25;;;2.88;;
69627;SDS011;56850;51.984;5.088;2023-03-16T08:06:10;5.57;;;2.30;;
69627;SDS011;56850;51.984;5.088;2023-03-16T08:08:37;3.15;;;2.28;;
69627;SDS011;56850;51.984;5.088;2023-03-16T08:11:05;3.63;;;2.58;;
69627;SDS011;56850;51.984;5.088;2023-03-16T08:13:50;6.67;;;3.10;;
69627;SDS011;56850;51.984;5.088;2023-03-16T08:16:24;5.30;;;2.72;;
69627;SDS011;56850;51.984;5.088;2023-03-16T08:18:55;5.38;;;2.65;;
69627;SDS011;56850;51.984;5.088;2023-03-16T08:21:22;5.18;;;2.50;;
69627;SDS011;56850;51.984;5.088;2023-03-16T08:23:49;8.63;;;3.20;;
69627;SDS011;56850;51.984;5.088;2023-03-16T08:26:18;5.67;;;2.53;;
69627;SDS011;56850;51.984;5.088;2023-03-16T08:28:50;6.68;;;2.67;;
69627;SDS011;56850;51.984;5.088;2023-03-16T08:31:18;6.05;;;2.55;;
69627;SDS011;56850;51.984;5.088;2023-03-16T08:33:52;7.20;;;3.13;;
69627;SDS011;56850;51.984;5.088;2023-03-16T08:36:24;5.72;;;2.70;;
69627;SDS011;56850;51.984;5.088;2023-03-16T08:38:56;3.33;;;2.60;;
69627;SDS011;56850;51.984;5.088;2023-03-16T08:41:35;6.95;;;2.42;;
69627;SDS011;56850;51.984;5.088;2023-03-16T08:44:07;5.05;;;2.40;;
69627;SDS011;56850;51.984;5.088;2023-03-16T08:46:35;4.13;;;2.63;;
69627;SDS011;56850;51.984;5.088;2023-03-16T08:49:02;3.33;;;2.40;;
69627;SDS011;56850;51.984;5.088;2023-03-16T08:51:30;7.90;;;2.70;;
69627;SDS011;56850;51.984;5.088;2023-03-16T08:53:58;3.47;;;2.55;;
69627;SDS011;56850;51.984;5.088;2023-03-16T08:56:25;4.85;;;2.67;;
69627;SDS011;56850;51.984;5.088;2023-03-16T08:58:51;3.65;;;2.20;;
69627;SDS011;56850;51.984;5.088;2023-03-16T09:01:19;6.22;;;2.55;;
69627;SDS011;56850;51.984;5.088;2023-03-16T09:03:47;4.50;;;2.50;;
69627;SDS011;56850;51.984;5.088;2023-03-16T09:06:16;6.30;;;2.30;;
69627;SDS011;56850;51.984;5.088;2023-03-16T09:08:43;6.65;;;2.72;;
69627;SDS011;56850;51.984;5.088;2023-03-16T09:11:12;4.72;;;3.38;;
69627;SDS011;56850;51.984;5.088;2023-03-16T09:13:41;5.70;;;2.45;;
69627;SDS011;56850;51.984;5.088;2023-03-16T09:16:10;5.00;;;2.50;;
69627;SDS011;56850;51.984;5.088;2023-03-16T09:18:38;5.00;;;2.90;;
69627;SDS011;56850;51.984;5.088;2023-03-16T09:21:07;6.72;;;2.83;;
69627;SDS011;56850;51.984;5.088;2023-03-16T09:23:35;4.40;;;3.08;;
69627;SDS011;56850;51.984;5.088;2023-03-16T09:26:07;5.20;;;2.70;;
69627;SDS011;56850;51.984;5.088;2023-03-16T09:28:35;5.80;;;2.63;;
69627;SDS011;56850;51.984;5.088;2023-03-16T09:31:04;5.85;;;2.65;;
69627;SDS011;56850;51.984;5.088;2023-03-16T09:33:32;4.45;;;2.47;;
69627;SDS011;56850;51.984;5.088;2023-03-16T09:36:00;3.80;;;2.55;;
69627;SDS011;56850;51.984;5.088;2023-03-16T09:38:28;3.55;;;1.92;;
69627;SDS011;56850;51.984;5.088;2023-03-16T09:40:59;4.73;;;2.73;;
69627;SDS011;56850;51.984;5.088;2023-03-16T09:43:36;6.57;;;3.20;;
69627;SDS011;56850;51.984;5.088;2023-03-16T09:46:36;5.15;;;2.75;;
69627;SDS011;56850;51.984;5.088;2023-03-16T09:49:11;6.88;;;2.83;;
69627;SDS011;56850;51.984;5.088;2023-03-16T09:51:59;3.70;;;2.60;;
69627;SDS011;56850;51.984;5.088;2023-03-16T09:54:56;7.13;;;3.03;;
69627;SDS011;56850;51.984;5.088;2023-03-16T09:57:31;5.65;;;2.72;;
69627;SDS011;56850;51.984;5.088;2023-03-16T10:05:22;6.55;;;2.53;;
69627;SDS011;56850;51.984;5.088;2023-03-16T10:10:56;4.15;;;2.92;;
69627;SDS011;56850;51.984;5.088;2023-03-16T10:16:21;3.10;;;2.08;;
69627;SDS011;56850;51.984;5.088;2023-03-16T10:19:02;5.65;;;2.60;;
69627;SDS011;56850;51.984;5.088;2023-03-16T10:21:53;4.03;;;2.77;;
69627;SDS011;56850;51.984;5.088;2023-03-16T10:27:13;4.25;;;2.60;;
69627;SDS011;56850;51.984;5.088;2023-03-16T10:29:48;6.80;;;2.10;;
69627;SDS011;56850;51.984;5.088;2023-03-16T10:32:16;5.57;;;2.88;;
69627;SDS011;56850;51.984;5.088;2023-03-16T10:34:51;4.57;;;2.80;;
69627;SDS011;56850;51.984;5.088;2023-03-16T10:37:23;4.30;;;1.95;;
69627;SDS011;56850;51.984;5.088;2023-03-16T10:39:54;4.32;;;2.42;;
69627;SDS011;56850;51.984;5.088;2023-03-16T10:42:22;5.05;;;2.47;;
69627;SDS011;56850;51.984;5.088;2023-03-16T10:44:55;6.93;;;2.60;;
69627;SDS011;56850;51.984;5.088;2023-03-16T10:47:23;4.03;;;2.43;;
69627;SDS011;56850;51.984;5.088;2023-03-16T10:49:54;5.38;;;2.47;;
69627;SDS011;56850;51.984;5.088;2023-03-16T10:54:54;7.43;;;2.67;;
69627;SDS011;56850;51.984;5.088;2023-03-16T10:59:53;4.13;;;1.83;;
69627;SDS011;56850;51.984;5.088;2023-03-16T11:02:23;4.78;;;1.98;;
69627;SDS011;56850;51.984;5.088;2023-03-16T11:04:57;4.63;;;2.47;;
69627;SDS011;56850;51.984;5.088;2023-03-16T11:07:24;6.18;;;1.73;;
69627;SDS011;56850;51.984;5.088;2023-03-16T11:09:52;3.40;;;2.10;;
69627;SDS011;56850;51.984;5.088;2023-03-16T11:15:00;3.85;;;2.03;;
69627;SDS011;56850;51.984;5.088;2023-03-16T11:17:54;3.50;;;1.67;;
69627;SDS011;56850;51.984;5.088;2023-03-16T11:20:24;3.95;;;2.08;;
69627;SDS011;56850;51.984;5.088;2023-03-16T11:22:53;4.78;;;2.10;;
69627;SDS011;56850;51.984;5.088;2023-03-16T11:25:28;3.97;;;2.00;;
69627;SDS011;56850;51.984;5.088;2023-03-16T11:28:12;6.13;;;2.20;;
69627;SDS011;56850;51.984;5.088;2023-03-16T11:33:30;4.32;;;1.77;;
69627;SDS011;56850;51.984;5.088;2023-03-16T11:36:05;6.15;;;2.30;;
69627;SDS011;56850;51.984;5.088;2023-03-16T11:41:37;2.63;;;1.80;;
69627;SDS011;56850;51.984;5.088;2023-03-16T11:44:18;4.38;;;2.03;;
69627;SDS011;56850;51.984;5.088;2023-03-16T11:46:56;3.25;;;1.90;;
69627;SDS011;56850;51.984;5.088;2023-03-16T11:52:49;5.63;;;2.10;;
69627;SDS011;56850;51.984;5.088;2023-03-16T12:00:50;4.40;;;1.92;;
69627;SDS011;56850;51.984;5.088;2023-03-16T12:03:30;4.28;;;1.80;;
69627;SDS011;56850;51.984;5.088;2023-03-16T12:11:56;6.10;;;1.88;;
69627;SDS011;56850;51.984;5.088;2023-03-16T12:14:36;11.68;;;1.92;;
69627;SDS011;56850;51.984;5.088;2023-03-16T12:17:14;4.38;;;2.15;;
69627;SDS011;56850;51.984;5.088;2023-03-16T12:19:53;4.90;;;1.90;;
69627;SDS011;56850;51.984;5.088;2023-03-16T12:22:34;5.15;;;1.90;;
69627;SDS011;56850;51.984;5.088;2023-03-16T12:25:10;3.22;;;1.83;;
69627;SDS011;56850;51.984;5.088;2023-03-16T12:27:58;5.30;;;1.50;;
69627;SDS011;56850;51.984;5.088;2023-03-16T12:30:47;5.30;;;1.98;;
69627;SDS011;56850;51.984;5.088;2023-03-16T12:38:44;5.40;;;1.58;;
69627;SDS011;56850;51.984;5.088;2023-03-16T12:44:15;3.60;;;1.73;;
69627;SDS011;56850;51.984;5.088;2023-03-16T12:46:56;4.57;;;1.83;;
69627;SDS011;56850;51.984;5.088;2023-03-16T12:49:32;2.42;;;1.58;;
69627;SDS011;56850;51.984;5.088;2023-03-16T12:52:06;3.03;;;1.73;;
69627;SDS011;56850;51.984;5.088;2023-03-16T12:54:47;11.18;;;1.98;;
69627;SDS011;56850;51.984;5.088;2023-03-16T12:57:19;4.53;;;1.60;;
69627;SDS011;56850;51.984;5.088;2023-03-16T12:59:54;6.17;;;2.00;;
69627;SDS011;56850;51.984;5.088;2023-03-16T13:02:24;5.85;;;1.75;;
69627;SDS011;56850;51.984;5.088;2023-03-16T13:04:59;5.55;;;1.58;;
69627;SDS011;56850;51.984;5.088;2023-03-16T13:07:36;4.45;;;1.35;;
69627;SDS011;56850;51.984;5.088;2023-03-16T13:10:28;5.78;;;1.65;;
69627;SDS011;56850;51.984;5.088;2023-03-16T13:13:05;2.50;;;1.70;;
69627;SDS011;56850;51.984;5.088;2023-03-16T13:15:38;3.05;;;1.38;;
69627;SDS011;56850;51.984;5.088;2023-03-16T13:21:18;3.55;;;1.60;;
69627;SDS011;56850;51.984;5.088;2023-03-16T13:28:45;2.83;;;1.40;;
69627;SDS011;56850;51.984;5.088;2023-03-16T13:31:24;3.13;;;1.70;;
69627;SDS011;56850;51.984;5.088;2023-03-16T13:33:55;4.15;;;1.73;;
69627;SDS011;56850;51.984;5.088;2023-03-16T13:36:26;2.72;;;1.70;;
69627;SDS011;56850;51.984;5.088;2023-03-16T13:38:55;5.37;;;1.97;;
69627;SDS011;56850;51.984;5.088;2023-03-16T13:41:31;3.90;;;1.88;;
69627;SDS011;56850;51.984;5.088;2023-03-16T13:43:59;3.38;;;1.73;;
69627;SDS011;56850;51.984;5.088;2023-03-16T13:46:28;3.50;;;1.77;;
69627;SDS011;56850;51.984;5.088;2023-03-16T13:48:58;2.65;;;1.48;;
69627;SDS011;56850;51.984;5.088;2023-03-16T13:51:25;2.27;;;1.50;;
69627;SDS011;56850;51.984;5.088;2023-03-16T13:53:56;6.38;;;2.00;;
69627;SDS011;56850;51.984;5.088;2023-03-16T13:56:24;3.85;;;1.70;;
69627;SDS011;56850;51.984;5.088;2023-03-16T13:58:54;3.30;;;1.70;;
69627;SDS011;56850;51.984;5.088;2023-03-16T14:01:25;4.68;;;1.52;;
69627;SDS011;56850;51.984;5.088;2023-03-16T14:03:55;3.47;;;1.70;;
69627;SDS011;56850;51.984;5.088;2023-03-16T14:06:26;6.75;;;2.03;;
69627;SDS011;56850;51.984;5.088;2023-03-16T14:09:01;6.30;;;1.70;;
69627;SDS011;56850;51.984;5.088;2023-03-16T14:11:33;3.30;;;1.48;;
69627;SDS011;56850;51.984;5.088;2023-03-16T14:14:11;7.00;;;1.80;;
69627;SDS011;56850;51.984;5.088;2023-03-16T14:16:40;2.30;;;1.50;;
69627;SDS011;56850;51.984;5.088;2023-03-16T14:19:13;3.33;;;1.60;;
69627;SDS011;56850;51.984;5.088;2023-03-16T14:21:44;4.68;;;1.60;;
69627;SDS011;56850;51.984;5.088;2023-03-16T14:27:19;3.90;;;1.52;;
69627;SDS011;56850;51.984;5.088;2023-03-16T14:29:52;5.10;;;1.67;;
69627;SDS011;56850;51.984;5.088;2023-03-16T14:32:30;4.53;;;1.55;;
69627;SDS011;56850;51.984;5.088;2023-03-16T14:35:03;4.78;;;1.77;;
69627;SDS011;56850;51.984;5.088;2023-03-16T14:37:38;8.85;;;1.48;;
69627;SDS011;56850;51.984;5.088;2023-03-16T14:40:17;2.58;;;1.38;;
69627;SDS011;56850;51.984;5.088;2023-03-16T14:42:48;5.03;;;1.80;;
69627;SDS011;56850;51.984;5.088;2023-03-16T14:45:15;8.27;;;2.08;;
69627;SDS011;56850;51.984;5.088;2023-03-16T14:47:44;5.20;;;1.90;;
69627;SDS011;56850;51.984;5.088;2023-03-16T14:50:14;4.03;;;1.83;;
69627;SDS011;56850;51.984;5.088;2023-03-16T14:52:47;3.25;;;1.83;;
69627;SDS011;56850;51.984;5.088;2023-03-16T14:55:15;3.60;;;1.60;;
69627;SDS011;56850;51.984;5.088;2023-03-16T14:57:44;6.40;;;2.00;;
69627;SDS011;56850;51.984;5.088;2023-03-16T15:00:12;4.07;;;1.65;;
69627;SDS011;56850;51.984;5.088;2023-03-16T15:02:42;7.05;;;1.92;;
69627;SDS011;56850;51.984;5.088;2023-03-16T15:05:20;3.85;;;1.55;;
69627;SDS011;56850;51.984;5.088;2023-03-16T15:07:53;2.87;;;1.63;;
69627;SDS011;56850;51.984;5.088;2023-03-16T15:10:22;5.65;;;1.88;;
69627;SDS011;56850;51.984;5.088;2023-03-16T15:12:52;2.67;;;1.65;;
69627;SDS011;56850;51.984;5.088;2023-03-16T15:15:21;3.83;;;1.88;;
69627;SDS011;56850;51.984;5.088;2023-03-16T15:17:50;3.83;;;1.70;;
69627;SDS011;56850;51.984;5.088;2023-03-16T15:20:18;6.20;;;1.30;;
69627;SDS011;56850;51.984;5.088;2023-03-16T15:22:51;4.72;;;1.50;;
69627;SDS011;56850;51.984;5.088;2023-03-16T15:27:48;2.60;;;1.73;;
69627;SDS011;56850;51.984;5.088;2023-03-16T15:30:17;3.38;;;1.40;;
69627;SDS011;56850;51.984;5.088;2023-03-16T15:32:49;4.20;;;1.67;;
69627;SDS011;56850;51.984;5.088;2023-03-16T15:35:16;2.50;;;1.42;;
69627;SDS011;56850;51.984;5.088;2023-03-16T15:37:43;3.38;;;1.42;;
69627;SDS011;56850;51.984;5.088;2023-03-16T15:40:18;2.65;;;1.45;;
69627;SDS011;56850;51.984;5.088;2023-03-16T15:42:50;2.75;;;1.63;;
69627;SDS011;56850;51.984;5.088;2023-03-16T15:45:19;1.77;;;1.33;;
69627;SDS011;56850;51.984;5.088;2023-03-16T15:47:47;2.85;;;1.65;;
69627;SDS011;56850;51.984;5.088;2023-03-16T15:50:16;3.13;;;1.50;;
69627;SDS011;56850;51.984;5.088;2023-03-16T15:52:46;2.38;;;1.55;;
69627;SDS011;56850;51.984;5.088;2023-03-16T15:55:22;3.80;;;1.73;;
69627;SDS011;56850;51.984;5.088;2023-03-16T15:58:13;2.30;;;1.40;;
69627;SDS011;56850;51.984;5.088;2023-03-16T16:00:45;4.00;;;1.70;;
69627;SDS011;56850;51.984;5.088;2023-03-16T16:03:14;3.85;;;1.83;;
69627;SDS011;56850;51.984;5.088;2023-03-16T16:05:40;4.32;;;1.48;;
69627;SDS011;56850;51.984;5.088;2023-03-16T16:08:09;3.65;;;1.95;;
69627;SDS011;56850;51.984;5.088;2023-03-16T16:10:36;2.57;;;1.53;;
69627;SDS011;56850;51.984;5.088;2023-03-16T16:13:23;6.55;;;3.55;;
69627;SDS011;56850;51.984;5.088;2023-03-16T16:16:15;3.90;;;2.03;;
69627;SDS011;56850;51.984;5.088;2023-03-16T16:18:44;5.75;;;2.95;;
69627;SDS011;56850;51.984;5.088;2023-03-16T16:21:17;3.13;;;1.77;;
69627;SDS011;56850;51.984;5.088;2023-03-16T16:23:50;3.00;;;1.70;;